sensor_id;sensor_type;location;lat;lon;timestamp;temperature;humidity
65637;DHT22;52327;42.622;23.316;2023-07-13T00:01:46;23.39;50.16
65637;DHT22;52327;42.622;23.316;2023-07-13T00:04:16;23.36;50.47
65637;DHT22;52327;42.622;23.316;2023-07-13T00:06:42;23.22;51.57
65637;DHT22;52327;42.622;23.316;2023-07-13T00:09:12;23.30;51.57
65637;DHT22;52327;42.622;23.316;2023-07-13T00:11:38;23.23;51.38
65637;DHT22;52327;42.622;23.316;2023-07-13T00:14:04;23.17;51.65
65637;DHT22;52327;42.622;23.316;2023-07-13T00:16:29;23.29;51.42
65637;DHT22;52327;42.622;23.316;2023-07-13T00:18:55;23.39;51.22
65637;DHT22;52327;42.622;23.316;2023-07-13T00:21:20;23.34;51.40
65637;DHT22;52327;42.622;23.316;2023-07-13T00:23:46;23.33;51.11
65637;DHT22;52327;42.622;23.316;2023-07-13T00:26:12;23.23;51.05
65637;DHT22;52327;42.622;23.316;2023-07-13T00:28:38;22.94;52.23
65637;DHT22;52327;42.622;23.316;2023-07-13T00:31:05;23.19;52.51
65637;DHT22;52327;42.622;23.316;2023-07-13T00:33:31;23.23;52.12
65637;DHT22;52327;42.622;23.316;2023-07-13T00:35:57;23.17;52.31
65637;DHT22;52327;42.622;23.316;2023-07-13T00:38:23;23.07;52.85
65637;DHT22;52327;42.622;23.316;2023-07-13T00:40:49;23.15;53.20
65637;DHT22;52327;42.622;23.316;2023-07-13T00:43:20;22.91;53.37
65637;DHT22;52327;42.622;23.316;2023-07-13T00:48:13;22.64;54.92
65637;DHT22;52327;42.622;23.316;2023-07-13T00:50:40;22.66;55.77
65637;DHT22;52327;42.622;23.316;2023-07-13T00:53:06;22.94;54.80
65637;DHT22;52327;42.622;23.316;2023-07-13T00:55:33;23.03;54.27
65637;DHT22;52327;42.622;23.316;2023-07-13T00:57:59;22.95;53.92
65637;DHT22;52327;42.622;23.316;2023-07-13T01:00:26;22.62;55.85
65637;DHT22;52327;42.622;23.316;2023-07-13T01:02:58;22.45;56.70
65637;DHT22;52327;42.622;23.316;2023-07-13T01:05:54;22.55;56.43
65637;DHT22;52327;42.622;23.316;2023-07-13T01:08:21;22.45;56.48
65637;DHT22;52327;42.622;23.316;2023-07-13T01:10:58;22.47;55.59
65637;DHT22;52327;42.622;23.316;2023-07-13T01:13:25;22.40;55.68
65637;DHT22;52327;42.622;23.316;2023-07-13T01:15:55;22.31;55.48
65637;DHT22;52327;42.622;23.316;2023-07-13T01:18:24;22.31;55.55
65637;DHT22;52327;42.622;23.316;2023-07-13T01:20:54;22.24;55.49
65637;DHT22;52327;42.622;23.316;2023-07-13T01:23:20;22.06;57.00
65637;DHT22;52327;42.622;23.316;2023-07-13T01:25:46;22.24;55.33
65637;DHT22;52327;42.622;23.316;2023-07-13T01:28:12;22.25;56.26
65637;DHT22;52327;42.622;23.316;2023-07-13T01:30:38;22.22;56.43
65637;DHT22;52327;42.622;23.316;2023-07-13T01:33:08;22.21;55.86
65637;DHT22;52327;42.622;23.316;2023-07-13T01:35:45;22.33;56.16
65637;DHT22;52327;42.622;23.316;2023-07-13T01:38:17;22.51;55.40
65637;DHT22;52327;42.622;23.316;2023-07-13T01:40:43;22.43;55.73
65637;DHT22;52327;42.622;23.316;2023-07-13T01:43:08;22.38;55.65
65637;DHT22;52327;42.622;23.316;2023-07-13T01:45:34;22.33;55.32
65637;DHT22;52327;42.622;23.316;2023-07-13T01:47:59;22.27;55.73
65637;DHT22;52327;42.622;23.316;2023-07-13T01:50:51;22.24;55.64
65637;DHT22;52327;42.622;23.316;2023-07-13T01:53:34;22.21;56.79
65637;DHT22;52327;42.622;23.316;2023-07-13T01:56:00;22.25;56.93
65637;DHT22;52327;42.622;23.316;2023-07-13T01:58:25;22.44;56.63
65637;DHT22;52327;42.622;23.316;2023-07-13T02:00:51;22.52;54.43
65637;DHT22;52327;42.622;23.316;2023-07-13T02:03:17;22.45;55.27
65637;DHT22;52327;42.622;23.316;2023-07-13T02:05:44;22.47;56.62
65637;DHT22;52327;42.622;23.316;2023-07-13T02:08:10;22.49;56.49
65637;DHT22;52327;42.622;23.316;2023-07-13T02:10:36;22.40;57.18
65637;DHT22;52327;42.622;23.316;2023-07-13T02:13:05;22.37;56.71
65637;DHT22;52327;42.622;23.316;2023-07-13T02:15:31;22.18;57.83
65637;DHT22;52327;42.622;23.316;2023-07-13T02:17:56;22.11;57.87
65637;DHT22;52327;42.622;23.316;2023-07-13T02:20:24;22.03;57.43
65637;DHT22;52327;42.622;23.316;2023-07-13T02:22:50;21.90;57.99
65637;DHT22;52327;42.622;23.316;2023-07-13T02:25:15;21.77;58.11
65637;DHT22;52327;42.622;23.316;2023-07-13T02:27:41;21.70;58.14
65637;DHT22;52327;42.622;23.316;2023-07-13T02:30:07;21.63;56.95
65637;DHT22;52327;42.622;23.316;2023-07-13T02:32:32;21.74;57.98
65637;DHT22;52327;42.622;23.316;2023-07-13T02:34:59;21.74;57.95
65637;DHT22;52327;42.622;23.316;2023-07-13T02:37:24;21.73;57.48
65637;DHT22;52327;42.622;23.316;2023-07-13T02:39:50;21.57;58.01
65637;DHT22;52327;42.622;23.316;2023-07-13T02:42:15;21.84;58.02
65637;DHT22;52327;42.622;23.316;2023-07-13T02:44:41;21.76;58.01
65637;DHT22;52327;42.622;23.316;2023-07-13T02:47:06;21.76;58.41
65637;DHT22;52327;42.622;23.316;2023-07-13T02:49:32;21.86;57.87
65637;DHT22;52327;42.622;23.316;2023-07-13T02:51:58;21.67;58.15
65637;DHT22;52327;42.622;23.316;2023-07-13T02:54:23;21.66;58.74
65637;DHT22;52327;42.622;23.316;2023-07-13T02:56:48;21.59;58.71
65637;DHT22;52327;42.622;23.316;2023-07-13T02:59:14;21.65;59.78
65637;DHT22;52327;42.622;23.316;2023-07-13T03:01:40;21.59;58.89
65637;DHT22;52327;42.622;23.316;2023-07-13T03:04:05;21.55;59.28
65637;DHT22;52327;42.622;23.316;2023-07-13T03:06:32;21.65;58.80
65637;DHT22;52327;42.622;23.316;2023-07-13T03:08:58;21.57;59.27
65637;DHT22;52327;42.622;23.316;2023-07-13T03:11:25;21.73;58.74
65637;DHT22;52327;42.622;23.316;2023-07-13T03:13:51;21.60;58.84
65637;DHT22;52327;42.622;23.316;2023-07-13T03:16:17;21.62;57.93
65637;DHT22;52327;42.622;23.316;2023-07-13T03:18:43;21.65;58.38
65637;DHT22;52327;42.622;23.316;2023-07-13T03:21:08;21.65;58.48
65637;DHT22;52327;42.622;23.316;2023-07-13T03:23:34;21.82;58.64
65637;DHT22;52327;42.622;23.316;2023-07-13T03:26:12;21.74;58.74
65637;DHT22;52327;42.622;23.316;2023-07-13T03:28:39;21.70;58.77
65637;DHT22;52327;42.622;23.316;2023-07-13T03:31:08;21.87;58.69
65637;DHT22;52327;42.622;23.316;2023-07-13T03:33:34;21.74;59.06
65637;DHT22;52327;42.622;23.316;2023-07-13T03:36:00;21.82;59.84
65637;DHT22;52327;42.622;23.316;2023-07-13T03:38:26;22.08;59.22
65637;DHT22;52327;42.622;23.316;2023-07-13T03:40:54;22.22;59.77
65637;DHT22;52327;42.622;23.316;2023-07-13T03:43:20;22.18;59.99
65637;DHT22;52327;42.622;23.316;2023-07-13T03:45:46;22.21;59.11
65637;DHT22;52327;42.622;23.316;2023-07-13T03:48:12;22.07;60.56
65637;DHT22;52327;42.622;23.316;2023-07-13T03:50:37;22.10;61.40
65637;DHT22;52327;42.622;23.316;2023-07-13T03:53:03;22.25;60.19
65637;DHT22;52327;42.622;23.316;2023-07-13T03:55:29;22.47;60.95
65637;DHT22;52327;42.622;23.316;2023-07-13T03:58:00;22.49;60.70
65637;DHT22;52327;42.622;23.316;2023-07-13T04:00:26;22.66;61.12
65637;DHT22;52327;42.622;23.316;2023-07-13T04:02:51;22.49;63.02
65637;DHT22;52327;42.622;23.316;2023-07-13T04:05:17;22.47;63.71
65637;DHT22;52327;42.622;23.316;2023-07-13T04:07:43;22.38;63.46
65637;DHT22;52327;42.622;23.316;2023-07-13T04:10:09;22.54;63.68
65637;DHT22;52327;42.622;23.316;2023-07-13T04:12:34;22.44;63.29
65637;DHT22;52327;42.622;23.316;2023-07-13T04:15:00;22.56;63.03
65637;DHT22;52327;42.622;23.316;2023-07-13T04:17:25;22.78;63.00
65637;DHT22;52327;42.622;23.316;2023-07-13T04:19:51;23.00;64.56
65637;DHT22;52327;42.622;23.316;2023-07-13T04:22:17;23.20;64.80
65637;DHT22;52327;42.622;23.316;2023-07-13T04:24:42;23.19;64.15
65637;DHT22;52327;42.622;23.316;2023-07-13T04:27:07;23.16;64.33
65637;DHT22;52327;42.622;23.316;2023-07-13T04:29:33;23.30;63.85
65637;DHT22;52327;42.622;23.316;2023-07-13T04:31:58;23.13;63.94
65637;DHT22;52327;42.622;23.316;2023-07-13T04:34:24;23.22;64.21
65637;DHT22;52327;42.622;23.316;2023-07-13T04:36:53;23.49;64.27
65637;DHT22;52327;42.622;23.316;2023-07-13T04:39:21;23.58;64.28
65637;DHT22;52327;42.622;23.316;2023-07-13T04:41:47;23.77;63.17
65637;DHT22;52327;42.622;23.316;2023-07-13T04:44:15;23.70;62.51
65637;DHT22;52327;42.622;23.316;2023-07-13T04:46:41;23.61;63.11
65637;DHT22;52327;42.622;23.316;2023-07-13T04:49:31;23.68;63.02
65637;DHT22;52327;42.622;23.316;2023-07-13T04:51:57;23.74;62.70
65637;DHT22;52327;42.622;23.316;2023-07-13T04:54:26;23.87;61.37
65637;DHT22;52327;42.622;23.316;2023-07-13T04:56:51;24.17;61.14
65637;DHT22;52327;42.622;23.316;2023-07-13T04:59:17;24.21;58.54
65637;DHT22;52327;42.622;23.316;2023-07-13T05:01:42;24.11;60.21
65637;DHT22;52327;42.622;23.316;2023-07-13T05:04:08;23.87;61.06
65637;DHT22;52327;42.622;23.316;2023-07-13T05:06:33;24.01;60.66
65637;DHT22;52327;42.622;23.316;2023-07-13T05:08:59;24.07;61.06
65637;DHT22;52327;42.622;23.316;2023-07-13T05:11:24;24.15;61.91
65637;DHT22;52327;42.622;23.316;2023-07-13T05:13:50;24.15;61.96
65637;DHT22;52327;42.622;23.316;2023-07-13T05:16:15;24.14;62.77
65637;DHT22;52327;42.622;23.316;2023-07-13T05:18:41;24.09;62.50
65637;DHT22;52327;42.622;23.316;2023-07-13T05:21:08;24.01;62.13
65637;DHT22;52327;42.622;23.316;2023-07-13T05:23:35;24.01;61.80
65637;DHT22;52327;42.622;23.316;2023-07-13T05:26:02;23.63;63.04
65637;DHT22;52327;42.622;23.316;2023-07-13T05:28:29;23.57;62.86
65637;DHT22;52327;42.622;23.316;2023-07-13T05:30:55;23.71;62.36
65637;DHT22;52327;42.622;23.316;2023-07-13T05:33:21;24.08;60.79
65637;DHT22;52327;42.622;23.316;2023-07-13T05:35:47;23.97;61.45
65637;DHT22;52327;42.622;23.316;2023-07-13T05:38:12;24.07;60.78
65637;DHT22;52327;42.622;23.316;2023-07-13T05:40:38;23.89;61.45
65637;DHT22;52327;42.622;23.316;2023-07-13T05:43:03;23.89;62.21
65637;DHT22;52327;42.622;23.316;2023-07-13T05:45:29;23.96;61.33
65637;DHT22;52327;42.622;23.316;2023-07-13T05:47:54;24.11;61.87
65637;DHT22;52327;42.622;23.316;2023-07-13T05:50:23;24.28;61.43
65637;DHT22;52327;42.622;23.316;2023-07-13T05:52:48;24.39;61.32
65637;DHT22;52327;42.622;23.316;2023-07-13T05:55:14;24.38;60.50
65637;DHT22;52327;42.622;23.316;2023-07-13T05:57:39;24.33;61.43
65637;DHT22;52327;42.622;23.316;2023-07-13T06:00:05;24.60;60.46
65637;DHT22;52327;42.622;23.316;2023-07-13T06:02:31;24.68;60.87
65637;DHT22;52327;42.622;23.316;2023-07-13T06:04:56;24.63;59.99
65637;DHT22;52327;42.622;23.316;2023-07-13T06:07:23;25.06;58.26
65637;DHT22;52327;42.622;23.316;2023-07-13T06:09:48;25.00;58.77
65637;DHT22;52327;42.622;23.316;2023-07-13T06:12:14;25.14;58.92
65637;DHT22;52327;42.622;23.316;2023-07-13T06:14:39;25.27;58.97
65637;DHT22;52327;42.622;23.316;2023-07-13T06:17:05;25.33;57.64
65637;DHT22;52327;42.622;23.316;2023-07-13T06:19:32;25.38;56.37
65637;DHT22;52327;42.622;23.316;2023-07-13T06:21:58;25.28;55.61
65637;DHT22;52327;42.622;23.316;2023-07-13T06:24:24;25.13;55.33
65637;DHT22;52327;42.622;23.316;2023-07-13T06:26:50;25.24;53.72
65637;DHT22;52327;42.622;23.316;2023-07-13T06:29:15;25.38;54.64
65637;DHT22;52327;42.622;23.316;2023-07-13T06:31:41;25.61;54.48
65637;DHT22;52327;42.622;23.316;2023-07-13T06:34:33;25.75;54.42
65637;DHT22;52327;42.622;23.316;2023-07-13T06:37:07;25.86;55.31
65637;DHT22;52327;42.622;23.316;2023-07-13T06:39:32;26.01;53.78
65637;DHT22;52327;42.622;23.316;2023-07-13T06:41:59;25.72;54.91
65637;DHT22;52327;42.622;23.316;2023-07-13T06:44:25;25.88;53.95
65637;DHT22;52327;42.622;23.316;2023-07-13T06:46:59;25.88;54.88
65637;DHT22;52327;42.622;23.316;2023-07-13T06:49:24;25.93;54.71
65637;DHT22;52327;42.622;23.316;2023-07-13T06:51:50;26.08;54.72
65637;DHT22;52327;42.622;23.316;2023-07-13T06:54:15;25.91;55.06
65637;DHT22;52327;42.622;23.316;2023-07-13T06:56:41;25.86;56.08
65637;DHT22;52327;42.622;23.316;2023-07-13T06:59:06;25.98;56.12
65637;DHT22;52327;42.622;23.316;2023-07-13T07:01:31;26.13;55.35
65637;DHT22;52327;42.622;23.316;2023-07-13T07:03:57;25.95;55.43
65637;DHT22;52327;42.622;23.316;2023-07-13T07:06:23;26.03;55.46
65637;DHT22;52327;42.622;23.316;2023-07-13T07:08:50;26.30;54.83
65637;DHT22;52327;42.622;23.316;2023-07-13T07:11:24;26.44;55.35
65637;DHT22;52327;42.622;23.316;2023-07-13T07:13:53;26.28;55.03
65637;DHT22;52327;42.622;23.316;2023-07-13T07:16:19;26.50;54.47
65637;DHT22;52327;42.622;23.316;2023-07-13T07:18:46;26.90;52.93
65637;DHT22;52327;42.622;23.316;2023-07-13T07:21:12;26.79;53.43
65637;DHT22;52327;42.622;23.316;2023-07-13T07:23:38;26.61;55.01
65637;DHT22;52327;42.622;23.316;2023-07-13T07:26:04;26.56;55.78
65637;DHT22;52327;42.622;23.316;2023-07-13T07:28:30;26.69;55.76
65637;DHT22;52327;42.622;23.316;2023-07-13T07:30:57;26.86;55.54
65637;DHT22;52327;42.622;23.316;2023-07-13T07:33:23;27.04;55.08
65637;DHT22;52327;42.622;23.316;2023-07-13T07:35:49;27.18;54.34
65637;DHT22;52327;42.622;23.316;2023-07-13T07:38:14;27.31;54.47
65637;DHT22;52327;42.622;23.316;2023-07-13T07:40:40;27.18;53.61
65637;DHT22;52327;42.622;23.316;2023-07-13T07:43:07;27.00;54.02
65637;DHT22;52327;42.622;23.316;2023-07-13T07:45:33;27.08;54.78
65637;DHT22;52327;42.622;23.316;2023-07-13T07:47:59;27.15;54.53
65637;DHT22;52327;42.622;23.316;2023-07-13T07:50:25;27.12;54.67
65637;DHT22;52327;42.622;23.316;2023-07-13T07:52:51;27.12;54.34
65637;DHT22;52327;42.622;23.316;2023-07-13T07:55:16;27.24;52.92
65637;DHT22;52327;42.622;23.316;2023-07-13T07:57:42;27.15;53.56
65637;DHT22;52327;42.622;23.316;2023-07-13T08:00:08;26.98;55.88
65637;DHT22;52327;42.622;23.316;2023-07-13T08:02:33;27.07;53.52
65637;DHT22;52327;42.622;23.316;2023-07-13T08:04:59;27.05;54.37
65637;DHT22;52327;42.622;23.316;2023-07-13T08:07:24;27.49;53.91
65637;DHT22;52327;42.622;23.316;2023-07-13T08:09:52;27.61;53.08
65637;DHT22;52327;42.622;23.316;2023-07-13T08:12:18;27.73;53.52
65637;DHT22;52327;42.622;23.316;2023-07-13T08:14:44;27.82;53.32
65637;DHT22;52327;42.622;23.316;2023-07-13T08:17:09;28.02;52.42
65637;DHT22;52327;42.622;23.316;2023-07-13T08:19:34;28.09;53.19
65637;DHT22;52327;42.622;23.316;2023-07-13T08:22:00;28.14;52.99
65637;DHT22;52327;42.622;23.316;2023-07-13T08:24:25;27.99;52.52
65637;DHT22;52327;42.622;23.316;2023-07-13T08:26:54;27.82;52.52
65637;DHT22;52327;42.622;23.316;2023-07-13T08:29:20;27.65;52.46
65637;DHT22;52327;42.622;23.316;2023-07-13T08:31:45;27.62;52.17
65637;DHT22;52327;42.622;23.316;2023-07-13T08:34:12;27.70;51.67
65637;DHT22;52327;42.622;23.316;2023-07-13T08:36:40;27.97;48.49
65637;DHT22;52327;42.622;23.316;2023-07-13T08:39:05;27.90;52.33
65637;DHT22;52327;42.622;23.316;2023-07-13T08:41:32;27.96;52.47
65637;DHT22;52327;42.622;23.316;2023-07-13T08:43:59;28.16;51.79
65637;DHT22;52327;42.622;23.316;2023-07-13T08:48:58;28.50;51.27
65637;DHT22;52327;42.622;23.316;2023-07-13T08:54:02;28.68;49.88
65637;DHT22;52327;42.622;23.316;2023-07-13T08:56:29;28.82;50.75
65637;DHT22;52327;42.622;23.316;2023-07-13T08:59:03;28.85;50.02
65637;DHT22;52327;42.622;23.316;2023-07-13T09:04:22;29.23;49.90
65637;DHT22;52327;42.622;23.316;2023-07-13T09:09:33;28.61;48.73
65637;DHT22;52327;42.622;23.316;2023-07-13T09:15:30;28.87;47.87
65637;DHT22;52327;42.622;23.316;2023-07-13T09:18:08;28.88;46.49
65637;DHT22;52327;42.622;23.316;2023-07-13T09:20:41;28.96;47.52
65637;DHT22;52327;42.622;23.316;2023-07-13T09:23:14;29.08;47.53
65637;DHT22;52327;42.622;23.316;2023-07-13T09:25:41;29.23;47.45
65637;DHT22;52327;42.622;23.316;2023-07-13T09:31:02;29.87;42.42
65637;DHT22;52327;42.622;23.316;2023-07-13T09:33:29;29.90;44.75
65637;DHT22;52327;42.622;23.316;2023-07-13T09:35:59;30.07;42.37
65637;DHT22;52327;42.622;23.316;2023-07-13T09:38:29;29.67;43.95
65637;DHT22;52327;42.622;23.316;2023-07-13T09:50:14;30.72;42.64
65637;DHT22;52327;42.622;23.316;2023-07-13T09:56:47;31.25;41.89
65637;DHT22;52327;42.622;23.316;2023-07-13T09:59:35;31.39;41.46
65637;DHT22;52327;42.622;23.316;2023-07-13T10:02:22;31.31;40.85
65637;DHT22;52327;42.622;23.316;2023-07-13T10:04:59;31.44;41.22
65637;DHT22;52327;42.622;23.316;2023-07-13T10:07:25;31.57;41.11
65637;DHT22;52327;42.622;23.316;2023-07-13T10:09:55;31.66;41.52
65637;DHT22;52327;42.622;23.316;2023-07-13T10:12:22;31.66;42.16
65637;DHT22;52327;42.622;23.316;2023-07-13T10:14:52;31.49;41.18
65637;DHT22;52327;42.622;23.316;2023-07-13T10:17:26;31.76;40.32
65637;DHT22;52327;42.622;23.316;2023-07-13T10:20:03;31.71;40.02
65637;DHT22;52327;42.622;23.316;2023-07-13T10:25:24;31.85;40.25
65637;DHT22;52327;42.622;23.316;2023-07-13T10:27:58;31.95;40.05
65637;DHT22;52327;42.622;23.316;2023-07-13T10:30:31;31.92;38.51
65637;DHT22;52327;42.622;23.316;2023-07-13T10:33:00;31.71;39.10
65637;DHT22;52327;42.622;23.316;2023-07-13T10:35:27;31.64;40.28
65637;DHT22;52327;42.622;23.316;2023-07-13T10:37:59;31.94;41.19
65637;DHT22;52327;42.622;23.316;2023-07-13T10:41:05;32.36;40.66
65637;DHT22;52327;42.622;23.316;2023-07-13T10:43:35;32.58;40.34
65637;DHT22;52327;42.622;23.316;2023-07-13T10:46:05;32.79;39.89
65637;DHT22;52327;42.622;23.316;2023-07-13T10:48:31;32.79;40.35
65637;DHT22;52327;42.622;23.316;2023-07-13T10:51:00;32.84;40.10
65637;DHT22;52327;42.622;23.316;2023-07-13T10:53:31;33.00;40.10
65637;DHT22;52327;42.622;23.316;2023-07-13T10:56:03;33.00;39.82
65637;DHT22;52327;42.622;23.316;2023-07-13T10:58:36;33.10;39.53
65637;DHT22;52327;42.622;23.316;2023-07-13T11:03:29;33.33;38.90
65637;DHT22;52327;42.622;23.316;2023-07-13T11:06:29;33.46;38.22
65637;DHT22;52327;42.622;23.316;2023-07-13T11:09:17;33.62;37.49
65637;DHT22;52327;42.622;23.316;2023-07-13T11:11:43;33.72;36.92
65637;DHT22;52327;42.622;23.316;2023-07-13T11:15:00;33.85;36.96
65637;DHT22;52327;42.622;23.316;2023-07-13T11:17:37;34.18;37.02
65637;DHT22;52327;42.622;23.316;2023-07-13T11:22:49;34.60;35.87
65637;DHT22;52327;42.622;23.316;2023-07-13T11:25:27;34.48;36.19
65637;DHT22;52327;42.622;23.316;2023-07-13T11:28:04;34.72;35.18
65637;DHT22;52327;42.622;23.316;2023-07-13T11:30:46;35.27;33.29
65637;DHT22;52327;42.622;23.316;2023-07-13T11:33:24;35.02;34.22
65637;DHT22;52327;42.622;23.316;2023-07-13T11:36:13;34.94;34.50
65637;DHT22;52327;42.622;23.316;2023-07-13T11:39:03;34.66;35.16
65637;DHT22;52327;42.622;23.316;2023-07-13T11:41:37;34.76;34.21
65637;DHT22;52327;42.622;23.316;2023-07-13T11:46:37;34.90;34.12
65637;DHT22;52327;42.622;23.316;2023-07-13T11:49:05;34.92;33.72
65637;DHT22;52327;42.622;23.316;2023-07-13T11:51:35;35.10;33.62
65637;DHT22;52327;42.622;23.316;2023-07-13T11:54:01;35.41;33.68
65637;DHT22;52327;42.622;23.316;2023-07-13T11:56:27;35.61;32.97
65637;DHT22;52327;42.622;23.316;2023-07-13T11:58:56;35.51;32.89
65637;DHT22;52327;42.622;23.316;2023-07-13T12:01:31;35.55;32.86
65637;DHT22;52327;42.622;23.316;2023-07-13T12:04:02;35.37;32.91
65637;DHT22;52327;42.622;23.316;2023-07-13T12:06:33;35.54;32.56
65637;DHT22;52327;42.622;23.316;2023-07-13T12:09:08;35.71;32.75
65637;DHT22;52327;42.622;23.316;2023-07-13T12:11:46;35.74;32.33
65637;DHT22;52327;42.622;23.316;2023-07-13T12:14:16;35.70;32.04
65637;DHT22;52327;42.622;23.316;2023-07-13T12:16:43;35.89;32.19
65637;DHT22;52327;42.622;23.316;2023-07-13T12:19:28;36.01;30.55
65637;DHT22;52327;42.622;23.316;2023-07-13T12:21:58;36.16;31.16
65637;DHT22;52327;42.622;23.316;2023-07-13T12:24:26;36.26;30.50
65637;DHT22;52327;42.622;23.316;2023-07-13T12:27:03;36.40;30.28
65637;DHT22;52327;42.622;23.316;2023-07-13T12:29:32;36.50;30.31
65637;DHT22;52327;42.622;23.316;2023-07-13T12:31:59;36.77;29.60
65637;DHT22;52327;42.622;23.316;2023-07-13T12:34:27;36.87;29.92
65637;DHT22;52327;42.622;23.316;2023-07-13T12:41:48;36.94;30.00
65637;DHT22;52327;42.622;23.316;2023-07-13T12:44:17;36.97;30.35
65637;DHT22;52327;42.622;23.316;2023-07-13T12:47:02;36.91;29.51
65637;DHT22;52327;42.622;23.316;2023-07-13T12:49:31;36.98;29.47
65637;DHT22;52327;42.622;23.316;2023-07-13T12:52:01;36.90;29.81
65637;DHT22;52327;42.622;23.316;2023-07-13T12:54:29;36.97;30.35
65637;DHT22;52327;42.622;23.316;2023-07-13T12:56:56;37.13;29.05
65637;DHT22;52327;42.622;23.316;2023-07-13T12:59:25;36.64;29.07
65637;DHT22;52327;42.622;23.316;2023-07-13T13:01:53;36.88;29.56
65637;DHT22;52327;42.622;23.316;2023-07-13T13:04:19;36.86;30.45
65637;DHT22;52327;42.622;23.316;2023-07-13T13:06:48;37.03;30.03
65637;DHT22;52327;42.622;23.316;2023-07-13T13:09:16;37.01;29.98
65637;DHT22;52327;42.622;23.316;2023-07-13T13:11:43;37.27;29.47
65637;DHT22;52327;42.622;23.316;2023-07-13T13:14:10;37.14;29.55
65637;DHT22;52327;42.622;23.316;2023-07-13T13:16:43;37.41;29.93
65637;DHT22;52327;42.622;23.316;2023-07-13T13:19:14;37.27;29.64
65637;DHT22;52327;42.622;23.316;2023-07-13T13:21:43;37.24;29.51
65637;DHT22;52327;42.622;23.316;2023-07-13T13:24:20;37.39;28.93
65637;DHT22;52327;42.622;23.316;2023-07-13T13:26:47;37.18;29.90
65637;DHT22;52327;42.622;23.316;2023-07-13T13:29:22;37.27;29.95
65637;DHT22;52327;42.622;23.316;2023-07-13T13:31:52;37.46;29.40
65637;DHT22;52327;42.622;23.316;2023-07-13T13:34:18;37.85;29.46
65637;DHT22;52327;42.622;23.316;2023-07-13T13:36:45;37.21;29.90
65637;DHT22;52327;42.622;23.316;2023-07-13T13:39:24;37.39;29.07
65637;DHT22;52327;42.622;23.316;2023-07-13T13:41:51;37.31;28.92
65637;DHT22;52327;42.622;23.316;2023-07-13T13:44:18;37.39;29.26
65637;DHT22;52327;42.622;23.316;2023-07-13T13:46:52;37.42;28.79
65637;DHT22;52327;42.622;23.316;2023-07-13T13:49:22;37.31;29.22
65637;DHT22;52327;42.622;23.316;2023-07-13T13:52:11;37.64;28.99
65637;DHT22;52327;42.622;23.316;2023-07-13T13:54:38;37.98;27.89
65637;DHT22;52327;42.622;23.316;2023-07-13T13:57:03;37.55;28.64
65637;DHT22;52327;42.622;23.316;2023-07-13T13:59:30;37.37;28.66
65637;DHT22;52327;42.622;23.316;2023-07-13T14:02:00;37.82;27.87
65637;DHT22;52327;42.622;23.316;2023-07-13T14:04:27;37.78;27.70
65637;DHT22;52327;42.622;23.316;2023-07-13T14:06:53;37.93;27.32
65637;DHT22;52327;42.622;23.316;2023-07-13T14:09:19;37.61;27.45
65637;DHT22;52327;42.622;23.316;2023-07-13T14:11:46;37.93;27.65
65637;DHT22;52327;42.622;23.316;2023-07-13T14:14:17;38.43;28.60
65637;DHT22;52327;42.622;23.316;2023-07-13T14:16:44;38.46;26.80
65637;DHT22;52327;42.622;23.316;2023-07-13T14:19:13;38.64;26.87
65637;DHT22;52327;42.622;23.316;2023-07-13T14:21:39;38.39;27.82
65637;DHT22;52327;42.622;23.316;2023-07-13T14:24:05;38.60;29.22
65637;DHT22;52327;42.622;23.316;2023-07-13T14:26:38;38.77;27.31
65637;DHT22;52327;42.622;23.316;2023-07-13T14:29:10;38.63;27.07
65637;DHT22;52327;42.622;23.316;2023-07-13T14:31:37;38.68;27.85
65637;DHT22;52327;42.622;23.316;2023-07-13T14:34:02;39.28;27.78
65637;DHT22;52327;42.622;23.316;2023-07-13T14:36:32;39.46;28.97
65637;DHT22;52327;42.622;23.316;2023-07-13T14:38:59;39.64;30.29
65637;DHT22;52327;42.622;23.316;2023-07-13T14:41:26;39.62;30.69
65637;DHT22;52327;42.622;23.316;2023-07-13T14:43:51;39.72;31.40
65637;DHT22;52327;42.622;23.316;2023-07-13T14:46:35;39.88;30.42
65637;DHT22;52327;42.622;23.316;2023-07-13T14:51:49;40.12;26.79
65637;DHT22;52327;42.622;23.316;2023-07-13T14:54:14;39.77;27.41
65637;DHT22;52327;42.622;23.316;2023-07-13T14:56:40;39.10;29.65
65637;DHT22;52327;42.622;23.316;2023-07-13T14:59:05;38.54;32.74
65637;DHT22;52327;42.622;23.316;2023-07-13T15:01:34;38.47;31.77
65637;DHT22;52327;42.622;23.316;2023-07-13T15:04:00;37.96;27.95
65637;DHT22;52327;42.622;23.316;2023-07-13T15:06:25;37.69;32.01
65637;DHT22;52327;42.622;23.316;2023-07-13T15:08:51;37.38;34.37
65637;DHT22;52327;42.622;23.316;2023-07-13T15:11:16;37.10;35.92
65637;DHT22;52327;42.622;23.316;2023-07-13T15:13:42;36.95;36.46
65637;DHT22;52327;42.622;23.316;2023-07-13T15:16:18;36.67;36.58
65637;DHT22;52327;42.622;23.316;2023-07-13T15:18:46;36.76;34.48
65637;DHT22;52327;42.622;23.316;2023-07-13T15:21:17;36.57;33.76
65637;DHT22;52327;42.622;23.316;2023-07-13T15:23:44;36.39;33.42
65637;DHT22;52327;42.622;23.316;2023-07-13T15:26:15;36.25;34.07
65637;DHT22;52327;42.622;23.316;2023-07-13T15:28:42;36.15;34.86
65637;DHT22;52327;42.622;23.316;2023-07-13T15:31:27;35.96;34.40
65637;DHT22;52327;42.622;23.316;2023-07-13T15:33:57;35.89;36.15
65637;DHT22;52327;42.622;23.316;2023-07-13T15:36:23;35.68;32.86
65637;DHT22;52327;42.622;23.316;2023-07-13T15:38:52;35.80;32.65
65637;DHT22;52327;42.622;23.316;2023-07-13T15:41:27;35.27;35.92
65637;DHT22;52327;42.622;23.316;2023-07-13T15:43:54;35.10;33.49
65637;DHT22;52327;42.622;23.316;2023-07-13T15:46:22;34.97;35.92
65637;DHT22;52327;42.622;23.316;2023-07-13T15:48:48;34.87;36.58
65637;DHT22;52327;42.622;23.316;2023-07-13T15:51:27;34.83;36.97
65637;DHT22;52327;42.622;23.316;2023-07-13T15:53:55;34.78;37.07
65637;DHT22;52327;42.622;23.316;2023-07-13T15:56:28;34.83;38.37
65637;DHT22;52327;42.622;23.316;2023-07-13T15:58:55;34.70;37.10
65637;DHT22;52327;42.622;23.316;2023-07-13T16:01:22;34.48;37.84
65637;DHT22;52327;42.622;23.316;2023-07-13T16:03:48;34.45;31.04
65637;DHT22;52327;42.622;23.316;2023-07-13T16:06:23;34.43;36.75
65637;DHT22;52327;42.622;23.316;2023-07-13T16:08:50;34.01;39.80
65637;DHT22;52327;42.622;23.316;2023-07-13T16:11:25;34.01;37.96
65637;DHT22;52327;42.622;23.316;2023-07-13T16:13:51;34.04;39.59
65637;DHT22;52327;42.622;23.316;2023-07-13T16:16:22;34.00;39.82